createdAt,value
2019-04-30T00:00:08.457Z,78.32
2019-04-30T00:02:45.368Z,77.91
2019-04-30T00:05:15.186Z,78.36
2019-04-30T00:07:41.462Z,78.27
2019-04-30T00:10:08.915Z,77.92
2019-04-30T00:12:39.415Z,78.21
2019-04-30T00:15:06.237Z,78.08
2019-04-30T00:17:35.920Z,78.26
2019-04-30T00:20:07.471Z,77.56
2019-04-30T00:22:39.369Z,77.28
2019-04-30T00:25:05.267Z,77.47
2019-04-30T00:27:33.067Z,77.64
2019-04-30T00:30:04.836Z,77.46
2019-04-30T00:32:30.577Z,76.31
2019-04-30T00:34:57.984Z,76.41
2019-04-30T00:37:26.826Z,76.37
2019-04-30T00:39:55.506Z,76.50
2019-04-30T00:42:24.271Z,76.82
2019-04-30T00:44:52.070Z,77.04
2019-04-30T00:47:19.101Z,77.00
2019-04-30T00:49:47.230Z,76.71
2019-04-30T00:52:15.390Z,76.78
2019-04-30T00:54:42.746Z,75.98
2019-04-30T00:57:09.839Z,76.17
2019-04-30T00:59:39.867Z,76.42
2019-04-30T01:02:28.891Z,75.86
2019-04-30T01:04:52.236Z,76.13
2019-04-30T01:07:19.472Z,76.39
2019-04-30T01:09:49.743Z,76.01
2019-04-30T01:12:27.675Z,75.22
2019-04-30T01:14:46.784Z,74.91
2019-04-30T01:17:13.866Z,75.40
2019-04-30T01:19:46.068Z,75.62
2019-04-30T01:22:11.396Z,75.02
2019-04-30T01:24:41.119Z,73.86
2019-04-30T01:27:10.468Z,73.81
2019-04-30T01:29:40.860Z,74.09
2019-04-30T01:32:10.485Z,74.48
2019-04-30T01:34:36.939Z,74.77
2019-04-30T01:37:04.020Z,74.92
2019-04-30T01:39:31.701Z,74.74
2019-04-30T01:42:02.948Z,75.11
2019-04-30T01:44:29.521Z,75.15
2019-04-30T01:46:56.645Z,74.87
2019-04-30T01:49:25.696Z,74.40
2019-04-30T01:51:57.407Z,74.07
2019-04-30T01:54:24.313Z,73.86
2019-04-30T01:57:13.443Z,73.35
2019-04-30T02:00:20.319Z,73.69
2019-04-30T02:02:49.420Z,74.32
2019-04-30T02:05:16.439Z,74.55
2019-04-30T02:07:45.923Z,74.58
2019-04-30T02:10:12.931Z,74.58
2019-04-30T02:12:40.193Z,74.69
2019-04-30T02:15:09.351Z,74.95
2019-04-30T02:17:38.687Z,74.48
2019-04-30T02:20:06.580Z,74.54
2019-04-30T02:22:33.635Z,73.87
2019-04-30T02:25:00.690Z,72.62
2019-04-30T02:27:29.419Z,72.83
2019-04-30T02:29:59.487Z,73.14
2019-04-30T02:32:26.665Z,73.98
2019-04-30T02:35:13.471Z,74.27
2019-04-30T02:38:01.355Z,74.33
2019-04-30T02:40:31.339Z,74.41
2019-04-30T02:43:01.769Z,74.84
2019-04-30T02:45:30.011Z,74.57
2019-04-30T02:47:59.383Z,73.97
2019-04-30T02:50:29.380Z,73.65
2019-04-30T02:53:09.733Z,73.29
2019-04-30T02:55:42.400Z,72.10
2019-04-30T02:58:10.171Z,71.95
2019-04-30T03:00:39.412Z,72.17
2019-04-30T03:03:06.498Z,72.55
2019-04-30T03:05:33.541Z,72.83
2019-04-30T03:08:01.518Z,72.79
2019-04-30T03:10:30.318Z,72.19
2019-04-30T03:12:59.982Z,72.11
2019-04-30T03:15:29.911Z,72.53
2019-04-30T03:18:04.007Z,73.10
2019-04-30T03:20:56.278Z,72.60
2019-04-30T03:23:23.326Z,72.57
2019-04-30T03:25:50.703Z,72.09
2019-04-30T03:28:20.280Z,71.70
2019-04-30T03:30:56.233Z,71.15
2019-04-30T03:33:22.357Z,71.05
2019-04-30T03:35:48.242Z,71.36
2019-04-30T03:38:15.498Z,71.66
2019-04-30T03:40:42.540Z,72.10
2019-04-30T03:43:10.824Z,72.04
2019-04-30T03:45:40.195Z,71.70
2019-04-30T03:48:10.219Z,70.51
2019-04-30T03:50:50.239Z,70.43
2019-04-30T03:53:06.241Z,70.98
2019-04-30T03:55:33.615Z,71.56
2019-04-30T03:58:00.928Z,71.03
2019-04-30T04:00:50.051Z,70.83
2019-04-30T04:03:16.822Z,71.05
2019-04-30T04:06:14.277Z,70.84
2019-04-30T04:08:52.861Z,70.50
2019-04-30T04:11:23.888Z,70.59
2019-04-30T04:13:50.934Z,70.51
2019-04-30T04:16:19.478Z,70.28
2019-04-30T04:18:49.814Z,70.17
2019-04-30T04:21:17.155Z,69.84
2019-04-30T04:23:46.295Z,69.76
2019-04-30T04:26:13.549Z,69.71
2019-04-30T04:28:43.195Z,69.28
2019-04-30T04:31:12.774Z,69.46
2019-04-30T04:33:39.989Z,69.41
2019-04-30T04:36:09.166Z,68.90
2019-04-30T04:38:40.294Z,68.04
2019-04-30T04:41:10.100Z,67.90
2019-04-30T04:43:36.212Z,67.93
2019-04-30T04:46:05.723Z,68.67
2019-04-30T04:48:44.400Z,66.95
2019-04-30T04:51:27.875Z,66.91
2019-04-30T04:53:40.553Z,66.95
2019-04-30T04:56:10.104Z,66.52
2019-04-30T04:58:36.955Z,65.80
2019-04-30T05:01:04.138Z,65.18
2019-04-30T05:03:40.488Z,64.53
2019-04-30T05:06:39.507Z,64.67
2019-04-30T05:09:09.699Z,65.04
2019-04-30T05:11:39.543Z,66.92
2019-04-30T05:14:08.368Z,66.40
2019-04-30T05:16:35.712Z,66.44
2019-04-30T05:19:02.744Z,66.25
2019-04-30T05:21:41.729Z,66.13
2019-04-30T05:23:59.131Z,64.19
2019-04-30T05:26:26.363Z,62.89
2019-04-30T05:28:53.446Z,62.70
2019-04-30T05:31:22.343Z,63.54
2019-04-30T05:33:49.406Z,65.24
2019-04-30T05:36:19.195Z,65.85
2019-04-30T05:38:46.555Z,65.22
2019-04-30T05:41:13.684Z,64.91
2019-04-30T05:43:42.008Z,64.71
2019-04-30T05:46:11.019Z,65.23
2019-04-30T05:48:39.860Z,63.88
2019-04-30T05:51:08.990Z,62.71
2019-04-30T05:53:36.229Z,63.96
2019-04-30T05:56:03.374Z,63.96
2019-04-30T05:58:30.421Z,63.43
2019-04-30T06:00:59.722Z,63.68
2019-04-30T06:03:32.910Z,63.38
2019-04-30T06:05:58.940Z,60.69
2019-04-30T06:08:29.335Z,60.20
2019-04-30T06:11:05.989Z,60.59
2019-04-30T06:13:52.435Z,60.37
2019-04-30T06:16:21.521Z,62.38
2019-04-30T06:18:48.609Z,62.34
2019-04-30T06:21:15.641Z,64.06
2019-04-30T06:23:46.797Z,63.82
2019-04-30T06:26:14.057Z,63.28
2019-04-30T06:28:42.019Z,62.94
2019-04-30T06:31:09.202Z,61.80
2019-04-30T06:33:38.857Z,62.08
2019-04-30T06:36:08.555Z,62.23
2019-04-30T06:38:35.629Z,60.12
2019-04-30T06:41:05.684Z,60.72
2019-04-30T06:43:32.928Z,60.28
2019-04-30T06:46:00.167Z,58.93
2019-04-30T06:48:29.616Z,59.23
2019-04-30T06:50:56.623Z,59.98
2019-04-30T06:53:23.664Z,57.46
2019-04-30T06:55:50.715Z,57.97
2019-04-30T06:58:20.274Z,57.62
2019-04-30T07:00:46.822Z,58.10
2019-04-30T07:03:14.977Z,56.26
2019-04-30T07:05:44.049Z,56.36
2019-04-30T07:08:39.140Z,53.70
2019-04-30T07:11:19.407Z,54.08
2019-04-30T07:13:51.781Z,54.20
2019-04-30T07:16:18.978Z,53.13
2019-04-30T07:18:46.438Z,52.24
2019-04-30T07:21:15.777Z,51.97
2019-04-30T07:23:45.489Z,52.38
2019-04-30T07:26:22.742Z,51.20
2019-04-30T07:28:51.485Z,50.95
2019-04-30T07:31:14.655Z,49.52
2019-04-30T07:33:43.134Z,50.31
2019-04-30T07:36:10.458Z,49.58
2019-04-30T07:41:09.537Z,44.87
2019-04-30T07:43:39.393Z,43.27
2019-04-30T07:46:05.925Z,43.82
2019-04-30T07:48:32.973Z,43.36
2019-04-30T07:51:00.071Z,43.16
2019-04-30T07:53:28.229Z,41.67
2019-04-30T07:55:58.694Z,41.45
2019-04-30T07:58:25.814Z,40.80
2019-04-30T08:00:56.269Z,40.74
2019-04-30T08:03:50.128Z,42.71
2019-04-30T08:06:18.979Z,41.20
2019-04-30T08:08:50.714Z,42.13
2019-04-30T08:09:35.036Z,47.48
2019-04-30T08:11:25.643Z,41.72
2019-04-30T08:13:50.670Z,42.30
2019-04-30T08:16:21.752Z,41.98
2019-04-30T08:18:49.282Z,41.48
2019-04-30T08:21:18.977Z,40.71
2019-04-30T08:23:46.410Z,42.46
2019-04-30T08:26:13.505Z,42.05
2019-04-30T08:28:40.561Z,41.96
2019-04-30T08:31:09.743Z,42.93
2019-04-30T08:33:36.783Z,41.70
2019-04-30T08:36:04.136Z,39.81
2019-04-30T08:38:31.216Z,37.42
2019-04-30T08:41:00.779Z,40.09
2019-04-30T08:43:29.228Z,41.47
2019-04-30T08:46:00.095Z,43.19
2019-04-30T08:48:41.922Z,40.43
2019-04-30T08:50:59.162Z,41.22
2019-04-30T08:53:30.599Z,41.34
2019-04-30T08:55:55.917Z,41.67
2019-04-30T08:58:23.382Z,43.06
2019-04-30T09:00:50.452Z,41.28
2019-04-30T09:03:19.398Z,39.37
2019-04-30T09:06:03.416Z,40.23
2019-04-30T09:08:30.688Z,37.86
2019-04-30T09:10:59.578Z,39.37
2019-04-30T09:13:28.693Z,40.07
2019-04-30T09:15:55.741Z,38.34
2019-04-30T09:18:22.897Z,39.20
2019-04-30T09:20:50.222Z,36.54
2019-04-30T09:23:18.722Z,36.82
2019-04-30T09:25:45.979Z,37.80
2019-04-30T09:28:13.140Z,38.24
2019-04-30T09:30:40.170Z,37.14
2019-04-30T09:33:10.908Z,38.28
2019-04-30T09:35:36.371Z,37.76
2019-04-30T09:38:03.714Z,37.56
2019-04-30T09:40:32.551Z,36.05
2019-04-30T09:43:00.420Z,34.54
2019-04-30T09:45:28.540Z,35.90
2019-04-30T09:47:55.792Z,35.09
2019-04-30T09:50:24.778Z,33.22
2019-04-30T09:52:52.054Z,33.93
2019-04-30T09:55:19.459Z,33.46
2019-04-30T09:57:46.571Z,33.12
2019-04-30T10:00:14.148Z,31.92
2019-04-30T10:02:41.383Z,31.72
2019-04-30T10:05:10.233Z,32.31
2019-04-30T10:07:39.365Z,30.72
2019-04-30T10:10:09.414Z,31.33
2019-04-30T10:12:36.191Z,33.52
2019-04-30T10:15:03.622Z,31.14
2019-04-30T10:17:38.742Z,33.04
2019-04-30T10:20:08.792Z,30.93
2019-04-30T10:22:35.871Z,29.90
2019-04-30T10:25:04.511Z,29.57
2019-04-30T10:27:31.986Z,28.54
2019-04-30T10:29:59.460Z,25.74
2019-04-30T10:32:26.754Z,25.16
2019-04-30T10:34:53.821Z,26.16
2019-04-30T10:37:21.110Z,25.94
2019-04-30T10:39:48.961Z,27.71
2019-04-30T10:42:17.307Z,29.88
2019-04-30T10:44:44.350Z,30.50
2019-04-30T10:47:11.656Z,31.50
2019-04-30T10:49:39.034Z,28.01
2019-04-30T10:52:06.456Z,27.48
2019-04-30T10:54:34.663Z,26.13
2019-04-30T10:57:02.922Z,27.21
2019-04-30T10:59:30.006Z,26.74
2019-04-30T11:01:59.076Z,25.58
2019-04-30T11:04:26.058Z,26.69
2019-04-30T11:06:53.203Z,27.68
2019-04-30T11:09:20.382Z,28.92
2019-04-30T11:11:49.578Z,30.00
2019-04-30T11:14:16.771Z,30.59
2019-04-30T11:16:44.008Z,29.29
2019-04-30T11:19:11.594Z,28.57
2019-04-30T11:21:42.860Z,27.79
2019-04-30T11:24:10.421Z,24.94
2019-04-30T11:26:40.349Z,26.00
2019-04-30T11:29:06.844Z,25.85
2019-04-30T11:32:04.310Z,25.49
2019-04-30T11:34:31.702Z,25.08
2019-04-30T11:37:00.569Z,26.46
2019-04-30T11:39:29.635Z,24.97
2019-04-30T11:42:01.004Z,20.68
2019-04-30T11:44:44.769Z,23.01
2019-04-30T11:47:25.182Z,22.56
2019-04-30T11:49:52.556Z,24.41
2019-04-30T11:52:20.144Z,23.23
2019-04-30T11:54:51.607Z,22.92
2019-04-30T11:57:20.964Z,23.37
2019-04-30T11:59:48.341Z,21.98
2019-04-30T12:02:24.072Z,25.07
2019-04-30T12:04:51.265Z,23.11
2019-04-30T12:07:38.718Z,22.04
2019-04-30T12:10:25.943Z,22.93
2019-04-30T12:12:53.015Z,24.03
2019-04-30T12:15:20.172Z,22.74
2019-04-30T12:17:49.073Z,23.38
2019-04-30T12:20:20.805Z,23.07
2019-04-30T12:22:49.407Z,20.76
2019-04-30T12:25:18.584Z,22.61
2019-04-30T12:27:45.690Z,22.61
2019-04-30T12:30:14.586Z,21.59
2019-04-30T12:32:41.773Z,22.75
2019-04-30T12:35:11.737Z,22.40
2019-04-30T12:37:39.784Z,23.89
2019-04-30T12:40:25.855Z,24.91
2019-04-30T12:42:45.913Z,23.24
2019-04-30T12:46:02.269Z,22.46
2019-04-30T12:52:16.659Z,22.64
2019-04-30T12:54:58.005Z,23.76
2019-04-30T12:57:56.194Z,21.21
2019-04-30T13:00:20.704Z,20.43
2019-04-30T13:02:52.832Z,23.29
2019-04-30T13:08:20.755Z,23.02
2019-04-30T13:10:53.578Z,21.92
2019-04-30T13:13:21.547Z,25.69
2019-04-30T13:15:48.919Z,23.54
2019-04-30T13:18:22.543Z,24.67
2019-04-30T13:20:54.666Z,24.52
2019-04-30T13:23:24.680Z,22.87
2019-04-30T13:25:51.906Z,24.07
2019-04-30T13:28:22.643Z,23.30
2019-04-30T13:31:09.274Z,21.32
2019-04-30T13:33:46.005Z,21.01
2019-04-30T13:36:19.889Z,20.09
2019-04-30T13:39:06.182Z,22.22
2019-04-30T13:41:43.680Z,20.69
2019-04-30T13:44:17.019Z,22.47
2019-04-30T13:46:44.176Z,20.10
2019-04-30T13:49:11.262Z,21.88
2019-04-30T13:51:38.332Z,22.69
2019-04-30T13:54:05.483Z,25.10
2019-04-30T13:56:34.352Z,23.29
2019-04-30T13:59:01.474Z,25.35
2019-04-30T14:01:29.446Z,24.02
2019-04-30T14:04:19.165Z,21.95
2019-04-30T14:07:02.051Z,23.68
2019-04-30T14:09:30.248Z,24.50
2019-04-30T14:11:57.326Z,24.44
2019-04-30T14:14:24.603Z,23.86
2019-04-30T14:16:52.001Z,23.72
2019-04-30T14:19:19.623Z,19.94
2019-04-30T14:21:49.242Z,20.42
2019-04-30T14:24:16.678Z,19.90
2019-04-30T14:26:44.063Z,22.35
2019-04-30T14:29:11.286Z,21.17
2019-04-30T14:31:38.829Z,20.24
2019-04-30T14:34:05.910Z,19.52
2019-04-30T14:36:33.029Z,20.52
2019-04-30T14:39:13.538Z,21.56
2019-04-30T14:41:33.165Z,23.82
2019-04-30T14:44:07.879Z,24.60
2019-04-30T14:46:52.959Z,23.61
2019-04-30T14:49:59.743Z,23.80
2019-04-30T14:52:19.544Z,23.50
2019-04-30T14:55:08.872Z,23.72
2019-04-30T14:57:55.680Z,22.66
2019-04-30T15:00:44.918Z,22.04
2019-04-30T15:03:14.431Z,23.62
2019-04-30T15:05:48.494Z,22.73
2019-04-30T15:08:10.753Z,23.42
2019-04-30T15:10:37.910Z,24.49
2019-04-30T15:13:09.588Z,22.30
2019-04-30T15:15:39.292Z,21.84
2019-04-30T15:18:09.237Z,24.73
2019-04-30T15:20:36.570Z,29.03
2019-04-30T15:23:30.227Z,27.61
2019-04-30T15:25:59.153Z,25.19
2019-04-30T15:28:32.478Z,25.04
2019-04-30T15:31:26.434Z,23.85
2019-04-30T15:34:03.229Z,25.81
2019-04-30T15:36:35.759Z,24.88
2019-04-30T15:39:24.590Z,23.95
2019-04-30T15:41:54.102Z,21.73
2019-04-30T15:44:30.925Z,22.76
2019-04-30T15:47:08.929Z,24.20
2019-04-30T15:49:36.601Z,22.89
2019-04-30T15:52:04.426Z,23.94
2019-04-30T15:54:31.568Z,27.18
2019-04-30T15:57:00.411Z,28.05
2019-04-30T15:59:39.509Z,25.75
2019-04-30T16:02:21.946Z,26.51
2019-04-30T16:05:02.479Z,24.60
2019-04-30T16:07:32.475Z,25.29
2019-04-30T16:10:54.363Z,25.53
2019-04-30T16:13:33.682Z,26.09
2019-04-30T16:16:00.770Z,27.28
2019-04-30T16:18:34.498Z,27.10
2019-04-30T16:21:01.588Z,28.88
2019-04-30T16:23:28.939Z,29.03
2019-04-30T16:25:56.001Z,27.08
2019-04-30T16:28:23.096Z,27.91
2019-04-30T16:30:50.365Z,28.86
2019-04-30T16:33:20.481Z,30.18
2019-04-30T16:35:50.880Z,28.30
2019-04-30T16:38:20.950Z,27.61
2019-04-30T16:40:58.510Z,26.98
2019-04-30T16:44:19.169Z,28.71
2019-04-30T16:46:49.377Z,27.96
2019-04-30T16:49:18.537Z,27.61
2019-04-30T16:51:49.910Z,27.73
2019-04-30T16:54:18.706Z,27.28
2019-04-30T16:56:52.366Z,29.13
2019-04-30T16:59:23.250Z,30.01
2019-04-30T17:01:57.798Z,30.06
2019-04-30T17:04:49.390Z,30.38
2019-04-30T17:07:38.687Z,30.34
2019-04-30T17:10:18.885Z,31.07
2019-04-30T17:13:40.023Z,30.07
2019-04-30T17:16:11.324Z,30.37
2019-04-30T17:18:38.793Z,31.53
2019-04-30T17:21:09.756Z,32.82
2019-04-30T17:23:36.637Z,34.03
2019-04-30T17:26:03.755Z,35.02
2019-04-30T17:28:31.928Z,35.72
2019-04-30T17:30:59.014Z,36.20
2019-04-30T17:33:26.073Z,36.65
2019-04-30T17:35:53.156Z,37.08
2019-04-30T17:38:20.247Z,37.65
2019-04-30T17:40:49.678Z,36.10
2019-04-30T17:43:16.287Z,34.08
2019-04-30T17:45:52.878Z,33.54
2019-04-30T17:48:19.903Z,33.11
2019-04-30T17:50:47.070Z,33.20
2019-04-30T17:53:14.522Z,33.88
2019-04-30T17:55:50.029Z,34.55
2019-04-30T17:58:20.427Z,34.48
2019-04-30T18:00:51.248Z,33.95
2019-04-30T18:03:19.542Z,34.66
2019-04-30T18:05:49.182Z,35.50
2019-04-30T18:08:16.891Z,35.67
2019-04-30T18:10:44.930Z,35.85
2019-04-30T18:13:12.503Z,36.13
2019-04-30T18:15:39.564Z,36.86
2019-04-30T18:18:20.877Z,37.81
2019-04-30T18:21:05.029Z,38.27
2019-04-30T18:23:53.859Z,39.27
2019-04-30T18:27:01.352Z,39.54
2019-04-30T18:29:29.415Z,39.92
2019-04-30T18:31:56.481Z,40.51
2019-04-30T18:34:23.583Z,40.68
2019-04-30T18:36:51.277Z,41.23
2019-04-30T18:39:18.925Z,40.95
2019-04-30T18:41:46.468Z,41.34
2019-04-30T18:44:13.772Z,41.55
2019-04-30T18:46:41.050Z,41.59
2019-04-30T18:49:11.338Z,41.64
2019-04-30T18:51:42.121Z,42.13
2019-04-30T18:54:07.944Z,41.99
2019-04-30T18:56:35.183Z,42.18
2019-04-30T18:59:02.488Z,42.46
2019-04-30T19:01:29.571Z,42.96
2019-04-30T19:03:58.454Z,43.27
2019-04-30T19:06:26.437Z,43.41
2019-04-30T19:09:29.680Z,43.85
2019-04-30T19:12:08.533Z,44.18
2019-04-30T19:14:49.222Z,44.69
2019-04-30T19:17:49.466Z,44.96
2019-04-30T19:20:26.388Z,45.24
2019-04-30T19:22:53.644Z,45.37
2019-04-30T19:25:21.512Z,45.06
2019-04-30T19:27:48.746Z,45.40
2019-04-30T19:30:19.280Z,45.72
2019-04-30T19:32:49.208Z,45.80
2019-04-30T19:35:18.774Z,45.81
2019-04-30T19:37:46.209Z,45.90
2019-04-30T19:40:13.350Z,46.78
2019-04-30T19:42:40.709Z,47.04
2019-04-30T19:45:12.019Z,46.96
2019-04-30T19:47:39.069Z,46.60
2019-04-30T19:50:09.384Z,46.71
2019-04-30T19:52:38.629Z,46.83
2019-04-30T19:55:06.085Z,46.99
2019-04-30T19:57:41.068Z,47.17
2019-04-30T20:00:09.311Z,47.04
2019-04-30T20:02:40.403Z,47.21
2019-04-30T20:05:09.007Z,47.67
2019-04-30T20:07:36.561Z,47.55
2019-04-30T20:10:11.647Z,47.84
2019-04-30T20:12:40.288Z,47.97
2019-04-30T20:15:17.186Z,48.30
2019-04-30T20:17:39.552Z,48.47
2019-04-30T20:20:09.116Z,48.97
2019-04-30T20:22:38.835Z,49.03
2019-04-30T20:25:09.168Z,49.06
2019-04-30T20:27:39.675Z,49.28
2019-04-30T20:30:09.549Z,49.76
2019-04-30T20:32:37.054Z,50.39
2019-04-30T20:35:06.618Z,50.81
2019-04-30T20:37:55.390Z,51.18
2019-04-30T20:40:24.667Z,51.47
2019-04-30T20:42:53.447Z,51.68
2019-04-30T20:45:22.771Z,51.81
2019-04-30T20:47:50.384Z,52.04
2019-04-30T20:50:18.750Z,52.73
2019-04-30T20:52:46.000Z,52.11
2019-04-30T20:55:13.320Z,52.24
2019-04-30T20:57:40.479Z,52.35
2019-04-30T21:00:09.725Z,52.75
2019-04-30T21:02:38.833Z,52.80
2019-04-30T21:05:09.781Z,52.92
2019-04-30T21:07:41.804Z,52.22
2019-04-30T21:10:10.156Z,51.84
2019-04-30T21:12:41.162Z,51.92
2019-04-30T21:15:09.665Z,52.08
2019-04-30T21:17:38.672Z,52.72
2019-04-30T21:20:09.618Z,53.39
2019-04-30T21:22:38.831Z,53.53
2019-04-30T21:25:06.647Z,53.35
2019-04-30T21:27:33.799Z,53.87
2019-04-30T21:30:04.189Z,54.25
2019-04-30T21:33:11.531Z,54.47
2019-04-30T21:35:52.581Z,54.28
2019-04-30T21:38:19.818Z,53.57
2019-04-30T21:40:46.887Z,53.50
2019-04-30T21:43:15.786Z,53.49
2019-04-30T21:45:45.143Z,53.58
2019-04-30T21:48:12.200Z,54.01
2019-04-30T21:50:39.838Z,54.80
2019-04-30T21:53:09.836Z,54.49
2019-04-30T21:55:37.149Z,54.48
2019-04-30T21:58:09.378Z,55.15
2019-04-30T22:00:59.410Z,55.54
2019-04-30T22:03:39.790Z,55.53
2019-04-30T22:06:08.468Z,55.89
2019-04-30T22:08:38.687Z,56.14
2019-04-30T22:11:06.548Z,55.35
2019-04-30T22:13:36.161Z,56.13
2019-04-30T22:16:03.567Z,56.27
2019-04-30T22:18:30.647Z,56.32
2019-04-30T22:20:57.712Z,56.30
2019-04-30T22:23:24.783Z,56.62
2019-04-30T22:25:51.813Z,57.00
2019-04-30T22:28:19.247Z,57.36
2019-04-30T22:30:50.407Z,57.16
2019-04-30T22:33:22.692Z,56.94
2019-04-30T22:36:01.961Z,57.04
2019-04-30T22:38:32.623Z,56.90
2019-04-30T22:41:01.520Z,57.25
2019-04-30T22:43:28.566Z,57.79
2019-04-30T22:46:09.839Z,57.95
2019-04-30T22:48:37.359Z,57.79
2019-04-30T22:51:13.327Z,57.80
2019-04-30T22:53:40.686Z,58.01
2019-04-30T22:56:09.483Z,58.19
2019-04-30T22:58:36.914Z,58.19
2019-04-30T23:01:23.014Z,58.34
2019-04-30T23:03:53.209Z,58.23
2019-04-30T23:06:22.617Z,58.19
2019-04-30T23:08:50.408Z,58.25
2019-04-30T23:11:19.249Z,58.14
2019-04-30T23:13:46.361Z,58.35
2019-04-30T23:16:14.625Z,58.33
2019-04-30T23:18:43.796Z,58.64
2019-04-30T23:21:23.751Z,58.67
2019-04-30T23:23:53.605Z,58.81
2019-04-30T23:26:20.697Z,58.84
2019-04-30T23:28:47.831Z,58.58
2019-04-30T23:31:14.913Z,58.82
2019-04-30T23:33:41.974Z,59.12
2019-04-30T23:36:09.150Z,59.41
2019-04-30T23:38:38.666Z,59.38
2019-04-30T23:41:07.796Z,59.82
2019-04-30T23:43:34.880Z,60.22
2019-04-30T23:46:03.577Z,60.34
2019-04-30T23:48:30.755Z,60.76
2019-04-30T23:50:59.285Z,61.49
2019-04-30T23:53:26.351Z,61.95
2019-04-30T23:55:53.508Z,62.28
2019-04-30T23:58:20.585Z,62.31
